Time;durP1;ratioP1;P1;durP2;ratioP2;P2;SDS_P1;SDS_P2;PMS_P1;PMS_P2;Temp;Humidity;BMP_temperature;BMP_pressure;BME280_temperature;BME280_humidity;BME280_pressure;Samples;Min_cycle;Max_cycle;Signal;HPM_P1;HPM_P2
2022/07/29 00:01:22;;;;;;;10.20;9.50;;;19.60;99.90;;;;;;4940938;29;20829;-81
2022/07/29 00:03:50;;;;;;;11.33;10.53;;;19.70;99.90;;;;;;4953735;29;20466;-81
2022/07/29 00:06:17;;;;;;;11.40;10.63;;;19.70;99.90;;;;;;4941583;29;20489;-81
2022/07/29 00:08:44;;;;;;;14.10;12.77;;;19.70;99.90;;;;;;4952634;29;20454;-81
2022/07/29 00:11:11;;;;;;;11.03;10.23;;;19.70;99.90;;;;;;4952618;29;20458;-81
2022/07/29 00:13:38;;;;;;;11.97;10.97;;;19.70;99.90;;;;;;4945705;29;20485;-82
2022/07/29 00:16:05;;;;;;;10.50;9.70;;;19.70;99.90;;;;;;4952183;28;20457;-81
2022/07/29 00:18:32;;;;;;;10.23;9.43;;;19.70;99.90;;;;;;4947731;29;20459;-81
2022/07/29 00:21:00;;;;;;;10.80;9.90;;;19.80;99.90;;;;;;4940382;29;20479;-82
2022/07/29 00:23:26;;;;;;;9.87;9.17;;;19.70;99.90;;;;;;4952508;29;20455;-81
2022/07/29 00:25:55;;;;;;;10.93;10.00;;;19.70;99.90;;;;;;4939314;29;20469;-81
2022/07/29 00:28:22;;;;;;;11.53;10.63;;;19.60;99.90;;;;;;4950081;29;20508;-81
2022/07/29 00:30:49;;;;;;;12.73;11.80;;;19.60;99.90;;;;;;4956861;29;20458;-81
2022/07/29 00:33:15;;;;;;;13.07;12.07;;;19.50;99.90;;;;;;4939290;29;20495;-82
2022/07/29 00:35:44;;;;;;;13.10;12.20;;;19.50;99.90;;;;;;4956116;29;20465;-81
2022/07/29 00:38:13;;;;;;;10.97;10.10;;;19.40;99.90;;;;;;4955201;29;20911;-80
2022/07/29 00:40:40;;;;;;;12.80;11.80;;;19.30;99.90;;;;;;4939815;29;20768;-81
2022/07/29 00:43:07;;;;;;;10.50;9.70;;;19.40;99.90;;;;;;4954604;29;20459;-81
2022/07/29 00:45:33;;;;;;;11.37;10.50;;;19.20;99.90;;;;;;4947997;29;20946;-81
2022/07/29 00:48:00;;;;;;;10.40;9.47;;;19.20;99.90;;;;;;4944367;29;20488;-81
2022/07/29 00:50:27;;;;;;;11.80;10.90;;;19.20;99.90;;;;;;4949705;29;20963;-78
2022/07/29 00:52:54;;;;;;;11.00;10.13;;;19.10;99.90;;;;;;4955876;29;20491;-77
2022/07/29 00:55:22;;;;;;;10.40;9.70;;;19.20;99.90;;;;;;4938766;29;20465;-78
2022/07/29 00:57:50;;;;;;;11.10;10.20;;;19.10;99.90;;;;;;4938993;29;20481;-78
2022/07/29 01:00:20;;;;;;;10.80;10.00;;;19.10;99.90;;;;;;4939656;29;20456;-80
2022/07/29 01:02:48;;;;;;;10.30;9.50;;;19.10;99.90;;;;;;4949920;29;20460;-79
2022/07/29 01:05:17;;;;;;;10.10;9.40;;;19.00;99.90;;;;;;4940455;28;20516;-78
2022/07/29 01:07:45;;;;;;;8.97;8.33;;;19.10;99.90;;;;;;4944758;29;20476;-78
2022/07/29 01:10:14;;;;;;;8.57;7.87;;;19.00;99.90;;;;;;4955295;29;20475;-78
2022/07/29 01:12:45;;;;;;;9.93;9.13;;;19.10;99.90;;;;;;4950663;29;20485;-78
2022/07/29 01:15:13;;;;;;;9.00;8.27;;;19.10;99.90;;;;;;4946207;29;20461;-78
2022/07/29 01:17:44;;;;;;;10.53;9.73;;;19.10;99.90;;;;;;4944517;28;20856;-78
2022/07/29 01:20:16;;;;;;;9.20;8.40;;;19.10;99.90;;;;;;4956882;28;20559;-78
2022/07/29 01:23:14;;;;;;;9.07;8.43;;;19.20;99.90;;;;;;4939919;29;20972;-78
2022/07/29 01:26:02;;;;;;;9.20;8.40;;;19.10;99.90;;;;;;4942889;29;20466;-79
2022/07/29 01:29:01;;;;;;;8.77;8.17;;;19.20;99.90;;;;;;4946050;29;20457;-79
2022/07/29 01:31:34;;;;;;;7.97;7.47;;;19.20;99.90;;;;;;4910289;29;20990;-78
2022/07/29 01:34:06;;;;;;;7.23;6.73;;;19.20;99.90;;;;;;4943538;29;20490;-79
2022/07/29 01:36:36;;;;;;;8.67;7.97;;;19.10;99.90;;;;;;4948785;28;20487;-80
2022/07/29 01:39:10;;;;;;;7.60;7.10;;;19.10;99.90;;;;;;4952118;29;20462;-80
2022/07/29 01:41:41;;;;;;;7.40;6.90;;;19.00;99.90;;;;;;4944359;29;20462;-80
2022/07/29 01:44:18;;;;;;;8.67;7.77;;;19.10;99.90;;;;;;4941730;29;20454;-80
2022/07/29 01:46:50;;;;;;;9.20;8.50;;;19.00;99.90;;;;;;4922279;29;20486;-81
2022/07/29 01:49:20;;;;;;;8.63;8.03;;;19.00;99.90;;;;;;4948172;29;20460;-80
2022/07/29 01:51:51;;;;;;;8.33;7.70;;;19.00;99.90;;;;;;4959988;29;20460;-80
2022/07/29 01:54:23;;;;;;;9.37;8.57;;;19.00;99.90;;;;;;4956463;29;20484;-79
2022/07/29 01:56:52;;;;;;;7.90;7.40;;;19.00;99.90;;;;;;4946421;28;20477;-80
2022/07/29 01:59:23;;;;;;;8.83;8.20;;;19.00;99.90;;;;;;4941231;29;20453;-80
2022/07/29 02:01:53;;;;;;;8.60;7.97;;;18.90;99.90;;;;;;4943445;29;20525;-80
2022/07/29 02:04:21;;;;;;;8.53;7.83;;;18.90;99.90;;;;;;4955032;28;20454;-80
2022/07/29 02:06:51;;;;;;;8.53;7.93;;;18.80;99.90;;;;;;4948330;28;20480;-80
2022/07/29 02:09:20;;;;;;;8.50;7.90;;;18.80;99.90;;;;;;4958706;29;20808;-80
2022/07/29 02:11:50;;;;;;;8.03;7.43;;;18.80;99.90;;;;;;4959731;29;20465;-80
2022/07/29 02:14:21;;;;;;;9.27;8.57;;;18.70;99.90;;;;;;4959719;29;20482;-80
2022/07/29 02:16:49;;;;;;;7.80;7.17;;;18.70;99.90;;;;;;4948641;29;20501;-81
2022/07/29 02:19:18;;;;;;;8.83;8.13;;;18.60;99.90;;;;;;4956179;29;20471;-81
2022/07/29 02:21:46;;;;;;;8.37;7.67;;;18.60;99.90;;;;;;4948626;29;20469;-80
2022/07/29 02:24:14;;;;;;;8.17;7.57;;;18.60;99.90;;;;;;4957239;29;20448;-81
2022/07/29 02:26:43;;;;;;;8.47;7.87;;;18.60;99.90;;;;;;4944086;29;20520;-81
2022/07/29 02:29:12;;;;;;;8.30;7.70;;;18.60;99.90;;;;;;4945720;29;20461;-81
2022/07/29 02:31:43;;;;;;;8.30;7.70;;;18.60;99.90;;;;;;4957414;29;20455;-81
2022/07/29 02:34:11;;;;;;;8.17;7.37;;;18.60;99.90;;;;;;4956580;28;20519;-80
2022/07/29 02:36:38;;;;;;;8.13;7.53;;;18.60;99.90;;;;;;4947978;28;20477;-81
2022/07/29 02:39:07;;;;;;;8.17;7.57;;;18.60;99.90;;;;;;4958297;28;20640;-80
2022/07/29 02:41:41;;;;;;;8.70;8.07;;;18.60;99.90;;;;;;4948958;29;20453;-80
2022/07/29 02:44:12;;;;;;;8.70;7.90;;;18.50;99.90;;;;;;4939626;29;20453;-81
2022/07/29 02:46:47;;;;;;;8.43;7.73;;;18.50;99.90;;;;;;4948343;28;20479;-81
2022/07/29 02:49:19;;;;;;;8.50;7.90;;;18.60;99.90;;;;;;4919823;29;20450;-81
2022/07/29 02:51:53;;;;;;;7.63;7.10;;;18.60;99.90;;;;;;4952437;29;20452;-81
2022/07/29 02:54:26;;;;;;;9.03;8.40;;;18.50;99.90;;;;;;4939422;29;20500;-81
2022/07/29 02:56:56;;;;;;;7.90;7.40;;;18.50;99.90;;;;;;4944763;29;20489;-81
2022/07/29 02:59:28;;;;;;;9.47;8.83;;;18.60;99.90;;;;;;4945949;29;20846;-81
2022/07/29 03:01:59;;;;;;;9.60;8.90;;;18.60;99.90;;;;;;4950885;29;20559;-81
2022/07/29 03:04:28;;;;;;;8.30;7.70;;;18.60;99.90;;;;;;4938756;29;20457;-81
2022/07/29 03:06:59;;;;;;;9.13;8.43;;;18.60;99.90;;;;;;4939685;29;20886;-81
2022/07/29 03:09:27;;;;;;;8.90;8.17;;;18.60;99.90;;;;;;4952436;29;20462;-81
2022/07/29 03:11:55;;;;;;;8.40;7.80;;;18.60;99.90;;;;;;4946169;28;20952;-80
2022/07/29 03:14:23;;;;;;;8.40;7.70;;;18.60;99.90;;;;;;4946533;29;20495;-80
2022/07/29 03:16:51;;;;;;;8.80;8.20;;;18.50;99.90;;;;;;4946328;29;20508;-81
2022/07/29 03:19:20;;;;;;;8.03;7.43;;;18.50;99.90;;;;;;4943403;29;20537;-80
2022/07/29 03:21:47;;;;;;;7.93;7.33;;;18.40;99.90;;;;;;4939755;29;20834;-81
2022/07/29 03:24:26;;;;;;;8.30;7.70;;;18.30;99.90;;;;;;4948885;29;20449;-81
2022/07/29 03:26:53;;;;;;;9.50;8.80;;;18.10;99.90;;;;;;4946228;29;20482;-81
2022/07/29 03:29:20;;;;;;;8.93;8.33;;;18.10;99.90;;;;;;4947062;29;20460;-81
2022/07/29 03:31:46;;;;;;;9.30;8.60;;;18.10;99.90;;;;;;4957118;29;20467;-80
2022/07/29 03:34:13;;;;;;;9.00;8.20;;;17.90;99.90;;;;;;4919254;29;20497;-80
2022/07/29 03:36:41;;;;;;;7.90;7.30;;;17.80;99.90;;;;;;4936700;29;20552;-81
2022/07/29 03:39:09;;;;;;;8.60;8.00;;;17.70;99.90;;;;;;4953729;29;20458;-81
2022/07/29 03:41:38;;;;;;;8.87;8.17;;;17.80;99.90;;;;;;4938380;29;20464;-81
2022/07/29 03:44:07;;;;;;;8.73;7.93;;;17.80;99.90;;;;;;4944879;29;20460;-81
2022/07/29 03:46:36;;;;;;;9.47;8.63;;;17.70;99.90;;;;;;4953319;29;20487;-81
2022/07/29 03:49:04;;;;;;;11.20;9.50;;;17.70;99.90;;;;;;4937738;28;20464;-79
2022/07/29 03:51:31;;;;;;;10.00;9.10;;;17.80;99.90;;;;;;4943424;28;20516;-79
2022/07/29 03:54:00;;;;;;;8.43;7.80;;;17.70;99.90;;;;;;4943826;29;20492;-79
2022/07/29 03:56:29;;;;;;;9.97;9.07;;;17.80;99.90;;;;;;4940354;29;20485;-79
2022/07/29 03:58:56;;;;;;;10.20;9.30;;;17.70;99.90;;;;;;4941387;29;20462;-79
2022/07/29 04:01:24;;;;;;;9.27;8.57;;;17.70;99.90;;;;;;4956336;29;20456;-79
2022/07/29 04:03:51;;;;;;;9.60;8.90;;;17.70;99.90;;;;;;4946442;29;20453;-78
2022/07/29 04:06:18;;;;;;;9.10;8.30;;;17.80;99.90;;;;;;4952327;29;20599;-78
2022/07/29 04:08:45;;;;;;;10.00;9.00;;;17.70;99.90;;;;;;4950363;29;20468;-79
2022/07/29 04:11:13;;;;;;;10.00;9.30;;;17.70;99.90;;;;;;4951034;29;20461;-79
2022/07/29 04:13:40;;;;;;;10.10;9.40;;;17.70;99.90;;;;;;4955747;29;20974;-79
2022/07/29 04:16:07;;;;;;;10.27;9.47;;;17.70;99.90;;;;;;4941155;29;20454;-79
2022/07/29 04:18:33;;;;;;;9.70;8.90;;;17.80;99.90;;;;;;4950335;29;20463;-79
2022/07/29 04:21:01;;;;;;;9.67;8.77;;;17.70;99.90;;;;;;4946198;29;20457;-79
2022/07/29 04:23:27;;;;;;;9.30;8.60;;;17.80;99.90;;;;;;4956032;29;20455;-79
2022/07/29 04:25:54;;;;;;;10.10;9.40;;;17.90;99.90;;;;;;4944828;29;20457;-79
2022/07/29 04:28:22;;;;;;;9.20;8.40;;;17.90;99.90;;;;;;4956455;29;20852;-79
2022/07/29 04:30:49;;;;;;;9.73;9.03;;;17.70;99.90;;;;;;4946171;29;20469;-79
2022/07/29 04:33:15;;;;;;;9.27;8.30;;;17.80;99.90;;;;;;4951339;29;20488;-79
2022/07/29 04:35:42;;;;;;;10.10;9.20;;;17.80;99.90;;;;;;4958742;29;20969;-79
2022/07/29 04:38:09;;;;;;;9.37;8.77;;;17.70;99.90;;;;;;4952896;29;20928;-80
2022/07/29 04:40:35;;;;;;;9.40;8.60;;;17.70;99.90;;;;;;4962503;29;20471;-79
2022/07/29 04:43:02;;;;;;;8.27;7.57;;;17.70;99.90;;;;;;4961898;29;20457;-78
2022/07/29 04:45:30;;;;;;;8.70;7.87;;;17.60;99.90;;;;;;4948080;29;20454;-78
2022/07/29 04:47:57;;;;;;;8.20;7.50;;;17.60;99.90;;;;;;4952196;29;20468;-78
2022/07/29 04:50:23;;;;;;;7.70;7.10;;;17.80;99.90;;;;;;4967605;29;20460;-78
2022/07/29 04:52:50;;;;;;;6.33;5.83;;;17.80;99.90;;;;;;4964153;29;20456;-79
2022/07/29 04:55:17;;;;;;;7.47;6.77;;;17.80;99.90;;;;;;4949784;29;20486;-80
2022/07/29 04:57:44;;;;;;;6.07;5.60;;;17.70;99.90;;;;;;4951213;29;20473;-80
2022/07/29 05:00:12;;;;;;;6.70;6.13;;;17.80;99.90;;;;;;4954083;29;20823;-79
2022/07/29 05:02:40;;;;;;;6.87;6.40;;;17.80;99.90;;;;;;4953429;29;20457;-79
2022/07/29 05:05:07;;;;;;;6.97;6.37;;;17.80;99.90;;;;;;4953372;29;20453;-79
2022/07/29 05:07:34;;;;;;;7.17;6.57;;;17.80;99.90;;;;;;4961346;29;20476;-80
2022/07/29 05:10:00;;;;;;;7.43;6.80;;;17.90;99.90;;;;;;4948810;29;20808;-79
2022/07/29 05:12:28;;;;;;;5.90;5.40;;;18.00;99.90;;;;;;4958553;29;20452;-79
2022/07/29 05:14:54;;;;;;;5.57;5.27;;;18.10;99.90;;;;;;4945645;28;20477;-80
2022/07/29 05:17:21;;;;;;;5.53;5.00;;;18.20;99.90;;;;;;4955492;28;20540;-79
2022/07/29 05:19:51;;;;;;;4.80;4.50;;;18.30;99.90;;;;;;4962898;29;20489;-80
2022/07/29 05:22:18;;;;;;;5.13;4.80;;;18.50;99.90;;;;;;4957555;29;20540;-80
2022/07/29 05:24:44;;;;;;;4.47;4.17;;;18.50;99.90;;;;;;4950495;29;20457;-79
2022/07/29 05:27:11;;;;;;;4.53;4.30;;;18.60;99.90;;;;;;4950338;29;20478;-79
2022/07/29 05:29:38;;;;;;;5.07;4.60;;;18.80;99.90;;;;;;4951800;29;20457;-80
2022/07/29 05:32:05;;;;;;;5.63;5.17;;;18.90;99.90;;;;;;4951291;29;20461;-80
2022/07/29 05:34:32;;;;;;;4.77;4.37;;;19.00;99.90;;;;;;4952133;29;20491;-79
2022/07/29 05:37:00;;;;;;;4.57;4.30;;;19.20;99.90;;;;;;4951999;29;20674;-80
2022/07/29 05:39:27;;;;;;;5.40;5.00;;;19.40;99.90;;;;;;4963074;29;20453;-80
2022/07/29 05:41:54;;;;;;;4.97;4.67;;;19.60;99.90;;;;;;4949860;29;20454;-80
2022/07/29 05:44:20;;;;;;;4.50;4.20;;;19.80;99.90;;;;;;4954451;29;20813;-80
2022/07/29 05:46:47;;;;;;;5.00;4.60;;;19.80;99.90;;;;;;4959987;29;20474;-80
2022/07/29 05:49:14;;;;;;;4.53;4.23;;;20.00;99.90;;;;;;4958082;29;20961;-80
2022/07/29 05:51:41;;;;;;;4.00;3.70;;;20.10;99.90;;;;;;4960145;29;20457;-80
2022/07/29 05:54:09;;;;;;;4.40;4.10;;;20.20;99.90;;;;;;4950997;29;20790;-80
2022/07/29 05:56:37;;;;;;;4.83;4.47;;;20.10;99.90;;;;;;4959737;29;20480;-80
2022/07/29 05:59:04;;;;;;;4.10;3.83;;;20.10;99.90;;;;;;4946041;28;20463;-79
2022/07/29 06:01:31;;;;;;;4.40;4.00;;;20.10;99.90;;;;;;4956075;29;20454;-80
2022/07/29 06:03:57;;;;;;;4.23;3.93;;;20.30;99.90;;;;;;4955801;29;20465;-80
2022/07/29 06:06:24;;;;;;;5.83;4.67;;;20.40;99.90;;;;;;4959586;29;20498;-82
2022/07/29 06:08:51;;;;;;;7.00;4.67;;;20.50;99.90;;;;;;4952187;29;20486;-82
2022/07/29 06:11:19;;;;;;;4.87;4.57;;;20.60;99.90;;;;;;4946405;29;20529;-81
2022/07/29 06:13:46;;;;;;;4.30;4.10;;;20.80;99.90;;;;;;4956523;29;20495;-80
2022/07/29 06:16:13;;;;;;;4.67;4.37;;;20.80;99.90;;;;;;4945771;28;20462;-82
2022/07/29 06:18:39;;;;;;;4.93;4.53;;;20.70;99.90;;;;;;4956673;29;20460;-82
2022/07/29 06:21:10;;;;;;;4.67;4.27;;;20.80;99.90;;;;;;4964098;29;20451;-81
2022/07/29 06:23:38;;;;;;;4.60;4.20;;;20.90;99.90;;;;;;4958109;28;20460;-83
2022/07/29 06:26:04;;;;;;;3.87;3.67;;;20.90;99.90;;;;;;4962082;28;20487;-80
2022/07/29 06:28:33;;;;;;;4.40;4.10;;;21.00;99.90;;;;;;4952579;29;20455;-83
2022/07/29 06:31:00;;;;;;;4.87;4.57;;;21.00;99.90;;;;;;4949082;28;20867;-83
2022/07/29 06:33:26;;;;;;;5.07;4.67;;;21.00;99.90;;;;;;4957755;29;20461;-81
2022/07/29 06:35:53;;;;;;;5.10;4.70;;;21.20;99.90;;;;;;4947890;29;20453;-83
2022/07/29 06:38:20;;;;;;;4.97;4.67;;;21.50;99.90;;;;;;4935470;29;20479;-83
2022/07/29 06:41:07;;;;;;;5.63;4.73;;;21.70;99.90;;;;;;4956194;29;20489;-80
2022/07/29 06:43:38;;;;;;;5.43;5.03;;;21.60;99.90;;;;;;4958020;28;20458;-83
2022/07/29 06:46:06;;;;;;;5.53;4.93;;;21.80;99.90;;;;;;4955360;29;20452;-82
2022/07/29 06:48:34;;;;;;;5.50;5.10;;;21.70;99.90;;;;;;4951777;29;21004;-82
2022/07/29 06:51:01;;;;;;;5.30;4.90;;;21.70;99.90;;;;;;4960782;29;20462;-84
2022/07/29 06:53:29;;;;;;;6.10;5.70;;;21.60;99.90;;;;;;4946064;29;20447;-85
2022/07/29 06:55:55;;;;;;;6.43;6.00;;;21.50;99.90;;;;;;4954528;29;20484;-83
2022/07/29 06:58:22;;;;;;;5.70;5.30;;;21.40;99.90;;;;;;4951423;29;20465;-84
2022/07/29 07:00:51;;;;;;;5.40;5.10;;;21.30;99.90;;;;;;4949353;29;20856;-85
2022/07/29 07:03:18;;;;;;;6.30;5.70;;;21.30;99.90;;;;;;4947736;29;20459;-84
2022/07/29 07:05:46;;;;;;;6.60;6.10;;;21.40;99.90;;;;;;4947136;29;20460;-83
2022/07/29 07:08:13;;;;;;;6.27;5.40;;;21.50;99.90;;;;;;4947326;29;20556;-85
2022/07/29 07:10:40;;;;;;;7.17;6.10;;;21.40;99.90;;;;;;4946867;29;20464;-85
2022/07/29 07:13:07;;;;;;;5.97;5.57;;;21.50;99.90;;;;;;4948575;29;20459;-85
2022/07/29 07:15:34;;;;;;;6.03;5.53;;;21.60;99.90;;;;;;4948461;29;20492;-84
2022/07/29 07:18:02;;;;;;;5.27;4.97;;;21.70;99.90;;;;;;4948758;29;20845;-84
2022/07/29 07:20:29;;;;;;;6.43;5.93;;;21.90;99.90;;;;;;4949028;29;20460;-84
2022/07/29 07:22:56;;;;;;;5.60;5.20;;;22.00;99.90;;;;;;4948319;29;20454;-83
2022/07/29 07:25:23;;;;;;;6.27;5.80;;;22.10;99.90;;;;;;4948712;29;20478;-85
2022/07/29 07:27:49;;;;;;;5.70;5.20;;;22.20;99.90;;;;;;4952526;29;20477;-85
2022/07/29 07:30:16;;;;;;;6.40;6.00;;;22.30;99.90;;;;;;4954067;29;20456;-84
2022/07/29 07:32:43;;;;;;;6.30;5.93;;;22.40;99.90;;;;;;4951972;29;20445;-85
2022/07/29 07:35:12;;;;;;;6.53;6.03;;;22.40;99.90;;;;;;4953261;29;20489;-85
2022/07/29 07:37:40;;;;;;;6.77;6.37;;;22.40;99.90;;;;;;4953340;29;20564;-83
2022/07/29 07:40:08;;;;;;;8.03;5.60;;;22.50;99.90;;;;;;4953654;29;20458;-84
2022/07/29 07:42:35;;;;;;;7.50;6.90;;;22.40;99.90;;;;;;4953165;29;20461;-84
2022/07/29 07:45:02;;;;;;;5.93;5.53;;;22.50;99.90;;;;;;4953581;29;20971;-84
2022/07/29 07:47:28;;;;;;;6.00;5.50;;;22.70;99.90;;;;;;4953048;29;20470;-83
2022/07/29 07:49:55;;;;;;;6.70;6.20;;;22.80;99.90;;;;;;4952758;29;20460;-84
2022/07/29 07:52:23;;;;;;;6.80;5.80;;;22.90;99.90;;;;;;4952499;29;20446;-84
2022/07/29 07:54:51;;;;;;;6.63;6.03;;;23.10;99.90;;;;;;4949253;29;20492;-84
2022/07/29 07:57:18;;;;;;;6.00;5.60;;;23.10;99.90;;;;;;4952661;29;20473;-85
2022/07/29 07:59:44;;;;;;;5.83;5.43;;;23.20;99.90;;;;;;4953093;29;20461;-84
2022/07/29 08:02:13;;;;;;;7.20;6.70;;;23.30;99.90;;;;;;4952423;29;20469;-86
2022/07/29 08:04:40;;;;;;;8.13;7.53;;;23.40;99.90;;;;;;4952450;29;20880;-85
2022/07/29 08:07:08;;;;;;;6.57;5.97;;;23.60;99.90;;;;;;4953287;29;20580;-85
2022/07/29 08:09:37;;;;;;;6.80;6.40;;;23.60;99.90;;;;;;4952021;29;20453;-83
2022/07/29 08:12:05;;;;;;;7.60;7.10;;;23.70;99.90;;;;;;4950695;29;20461;-85
2022/07/29 08:14:33;;;;;;;6.40;5.90;;;23.60;99.90;;;;;;4952430;29;20490;-85
2022/07/29 09:18:41;;;;;;;6.87;6.47;;;25.50;96.90;;;;;;4820376;29;21052;-85
2022/07/29 09:24:07;;;;;;;7.33;6.90;;;25.80;99.80;;;;;;4886041;29;20447;-86
2022/07/29 09:26:38;;;;;;;7.50;6.80;;;25.90;99.60;;;;;;4913983;29;20447;-87
2022/07/29 09:29:14;;;;;;;6.37;5.97;;;26.10;98.10;;;;;;4936261;29;20487;-85
2022/07/29 09:34:48;;;;;;;5.83;5.53;;;26.60;98.70;;;;;;4917787;29;20458;-83
2022/07/29 09:37:27;;;;;;;8.13;7.53;;;26.80;99.00;;;;;;4942824;29;20483;-84
2022/07/29 09:39:54;;;;;;;7.00;6.40;;;27.10;98.40;;;;;;4923147;29;20449;-84
2022/07/29 09:42:29;;;;;;;7.50;7.00;;;27.40;97.50;;;;;;4938150;29;20457;-85
2022/07/29 09:44:56;;;;;;;7.43;6.83;;;27.60;94.80;;;;;;4940058;29;21049;-85
2022/07/29 09:47:25;;;;;;;6.95;6.38;;;27.80;95.00;;;;;;4940360;29;20464;-85
2022/07/29 09:49:57;;;;;;;5.87;5.57;;;28.00;95.60;;;;;;4940484;29;20213;-85
2022/07/29 09:52:25;;;;;;;6.97;6.47;;;28.30;94.60;;;;;;4939475;29;21034;-85
2022/07/29 09:54:53;;;;;;;7.50;6.90;;;28.70;94.40;;;;;;4939270;28;20466;-85
2022/07/29 09:57:28;;;;;;;6.63;6.13;;;29.10;92.50;;;;;;4937759;29;20497;-85
2022/07/29 09:59:59;;;;;;;6.83;6.23;;;29.40;92.10;;;;;;4940476;29;20889;-84
2022/07/29 10:02:31;;;;;;;7.30;6.80;;;29.50;91.10;;;;;;4936141;29;20464;-85
2022/07/29 10:08:26;;;;;;;8.17;7.57;;;29.60;90.40;;;;;;4911735;29;20482;-84
2022/07/29 10:11:14;;;;;;;7.23;6.63;;;29.60;89.10;;;;;;4934162;29;20454;-85
2022/07/29 10:13:42;;;;;;;7.43;6.73;;;29.70;89.80;;;;;;4945587;29;20732;-86
2022/07/29 10:16:09;;;;;;;7.27;6.63;;;29.70;87.70;;;;;;4939327;28;20494;-86
2022/07/29 10:18:36;;;;;;;6.63;6.10;;;29.80;87.40;;;;;;4939819;29;20837;-85
2022/07/29 10:21:04;;;;;;;6.80;6.40;;;29.80;88.80;;;;;;4940606;29;21019;-86
2022/07/29 10:23:32;;;;;;;7.73;6.93;;;29.70;86.00;;;;;;4940585;29;20560;-86
2022/07/29 10:25:59;;;;;;;7.60;7.10;;;29.70;84.10;;;;;;4938761;28;20482;-85
2022/07/29 10:28:25;;;;;;;7.40;6.90;;;29.00;85.50;;;;;;4937786;29;20477;-85
2022/07/29 10:30:59;;;;;;;7.00;6.40;;;28.50;87.40;;;;;;4937290;29;20473;-86
2022/07/29 10:33:42;;;;;;;7.30;6.80;;;28.50;88.90;;;;;;4935762;29;20455;-86
2022/07/29 10:36:20;;;;;;;8.03;7.43;;;28.60;88.30;;;;;;4934916;29;20453;-86
2022/07/29 10:38:56;;;;;;;7.50;7.07;;;28.70;88.70;;;;;;4935704;29;20552;-85
2022/07/29 10:41:56;;;;;;;7.43;7.03;;;28.70;86.50;;;;;;4937655;29;20464;-85
2022/07/29 10:44:25;;;;;;;7.10;6.60;;;28.80;88.90;;;;;;4937444;29;20930;-85
2022/07/29 10:46:53;;;;;;;8.00;7.50;;;28.70;86.30;;;;;;4938173;28;20512;-85
2022/07/29 10:49:29;;;;;;;7.60;7.10;;;28.50;85.10;;;;;;4939623;29;20456;-86
2022/07/29 10:52:16;;;;;;;8.20;7.73;;;28.40;85.40;;;;;;4939253;29;20883;-86
2022/07/29 10:54:51;;;;;;;7.73;7.17;;;27.30;88.70;;;;;;4935399;29;20573;-85
2022/07/29 10:57:25;;;;;;;8.60;8.00;;;26.60;90.40;;;;;;4936308;29;20477;-86
2022/07/29 11:00:08;;;;;;;8.77;8.07;;;26.10;91.50;;;;;;4936121;29;20952;-86
2022/07/29 11:02:48;;;;;;;8.13;7.53;;;25.50;92.80;;;;;;4940101;29;20472;-85
2022/07/29 11:08:36;;;;;;;8.23;7.73;;;24.30;96.60;;;;;;5109715;23;20529;-86
2022/07/29 11:11:40;;;;;;;10.50;9.70;;;23.40;99.90;;;;;;5013699;28;20451;-87
2022/07/29 11:14:07;;;;;;;12.20;11.07;;;22.70;99.90;;;;;;5002668;28;20501;-84
2022/07/29 11:17:03;;;;;;;12.70;11.43;;;22.00;99.90;;;;;;4994789;28;20453;-84
2022/07/29 11:19:30;;;;;;;13.90;12.57;;;21.50;99.90;;;;;;4994736;28;20465;-84
2022/07/29 11:21:58;;;;;;;15.80;14.50;;;21.00;99.90;;;;;;4996316;28;20461;-85
2022/07/29 11:24:28;;;;;;;14.43;13.27;;;21.00;99.90;;;;;;4995002;28;20480;-84
2022/07/29 11:27:16;;;;;;;13.37;12.27;;;20.80;99.90;;;;;;4994463;28;20489;-85
2022/07/29 11:29:51;;;;;;;12.57;11.50;;;20.70;99.90;;;;;;4998417;28;20457;-85
2022/07/29 11:32:19;;;;;;;11.73;10.83;;;20.60;99.90;;;;;;4982506;28;20462;-85
2022/07/29 11:34:47;;;;;;;13.77;12.37;;;20.50;99.90;;;;;;4976757;28;20933;-85
2022/07/29 11:37:24;;;;;;;14.33;13.20;;;20.50;99.90;;;;;;4976702;28;20481;-84
2022/07/29 11:40:18;;;;;;;15.33;14.10;;;20.40;99.90;;;;;;4996265;28;21019;-83
2022/07/29 11:42:50;;;;;;;15.20;13.97;;;20.30;99.90;;;;;;4979442;28;20521;-85
2022/07/29 11:45:22;;;;;;;15.70;14.40;;;20.20;99.90;;;;;;4978341;28;20932;-85
2022/07/29 11:47:54;;;;;;;14.03;12.90;;;20.20;99.90;;;;;;4983101;28;20481;-84
2022/07/29 11:50:35;;;;;;;14.07;12.97;;;20.10;99.90;;;;;;4978465;28;20452;-84
2022/07/29 11:53:10;;;;;;;12.00;10.97;;;20.00;99.90;;;;;;4993987;28;20489;-84
2022/07/29 11:55:39;;;;;;;12.13;11.13;;;19.90;99.90;;;;;;4987452;28;20452;-85
2022/07/29 11:58:06;;;;;;;18.20;13.60;;;19.90;99.90;;;;;;4973455;28;20476;-85
2022/07/29 12:00:35;;;;;;;12.67;11.70;;;19.80;99.90;;;;;;4972283;28;20451;-85
2022/07/29 12:03:03;;;;;;;12.67;11.70;;;19.80;99.90;;;;;;4990183;28;20457;-85
2022/07/29 12:05:37;;;;;;;11.53;10.53;;;19.70;99.90;;;;;;4994890;28;20583;-85
2022/07/29 12:08:08;;;;;;;10.63;9.73;;;19.70;99.90;;;;;;4996249;28;20493;-84
2022/07/29 12:10:40;;;;;;;11.17;10.40;;;19.70;99.90;;;;;;5002070;28;20455;-85
2022/07/29 12:13:09;;;;;;;10.47;9.67;;;19.60;99.90;;;;;;5012413;28;20936;-84
2022/07/29 12:15:36;;;;;;;10.13;9.33;;;19.60;99.90;;;;;;5019605;28;20456;-84
2022/07/29 12:18:17;;;;;;;12.10;11.00;;;19.70;99.90;;;;;;5026630;28;21007;-85
2022/07/29 12:20:45;;;;;;;9.67;8.87;;;19.90;99.90;;;;;;5007320;28;20460;-84
2022/07/29 12:23:29;;;;;;;8.73;8.13;;;20.00;99.90;;;;;;4994792;28;20565;-87
2022/07/29 12:25:58;;;;;;;8.20;7.60;;;20.20;99.90;;;;;;4995877;28;20583;-84
2022/07/29 12:28:26;;;;;;;8.47;7.63;;;20.40;99.90;;;;;;4998832;28;20507;-85
2022/07/29 12:30:53;;;;;;;10.30;9.40;;;20.50;99.90;;;;;;5005864;28;20455;-84
2022/07/29 12:33:21;;;;;;;9.00;8.20;;;20.70;99.90;;;;;;4995341;28;20453;-83
2022/07/29 12:35:59;;;;;;;9.60;8.23;;;20.90;99.90;;;;;;5010635;28;20453;-86
2022/07/29 12:42:20;;;;;;;12.90;11.60;;;21.10;99.90;;;;;;4940299;29;20441;-87
2022/07/29 12:44:51;;;;;;;10.77;10.07;;;21.10;99.90;;;;;;4952421;28;20459;-85
2022/07/29 12:47:19;;;;;;;10.17;9.17;;;21.10;99.90;;;;;;4984565;28;20497;-84
2022/07/29 12:49:50;;;;;;;11.33;10.27;;;21.20;99.90;;;;;;5001632;28;20465;-85
2022/07/29 12:52:30;;;;;;;11.03;10.03;;;21.30;99.90;;;;;;4995740;28;20453;-87
2022/07/29 12:54:57;;;;;;;9.73;9.03;;;21.40;99.90;;;;;;4997988;28;20838;-86
2022/07/29 12:57:24;;;;;;;10.60;9.67;;;21.50;99.90;;;;;;5016061;28;20469;-85
2022/07/29 13:00:08;;;;;;;13.67;12.23;;;21.20;99.90;;;;;;5013420;28;20956;-84
2022/07/29 13:02:43;;;;;;;10.83;9.73;;;21.30;99.90;;;;;;5022270;28;20466;-85
2022/07/29 13:05:12;;;;;;;11.83;10.83;;;21.40;99.90;;;;;;5003480;28;20446;-84
2022/07/29 13:07:39;;;;;;;11.93;10.83;;;21.40;99.90;;;;;;4997055;28;20467;-84
2022/07/29 13:10:15;;;;;;;12.00;11.00;;;21.40;99.90;;;;;;4997837;28;20459;-85
2022/07/29 13:13:10;;;;;;;12.07;10.90;;;21.20;99.90;;;;;;5010759;28;20459;-86
2022/07/29 13:15:46;;;;;;;12.00;10.90;;;21.10;99.90;;;;;;5005778;28;20862;-86
2022/07/29 13:18:30;;;;;;;10.70;9.83;;;21.00;99.90;;;;;;4997289;28;20468;-84
2022/07/29 13:20:57;;;;;;;12.80;11.70;;;21.10;99.90;;;;;;5004956;28;20454;-85
2022/07/29 13:23:24;;;;;;;10.00;9.30;;;20.80;99.90;;;;;;5016872;28;20463;-85
2022/07/29 13:25:51;;;;;;;11.90;10.97;;;20.50;99.90;;;;;;5017211;28;20485;-82
2022/07/29 13:28:17;;;;;;;11.50;10.60;;;20.30;99.90;;;;;;5021473;28;20960;-82
2022/07/29 13:30:46;;;;;;;12.60;11.60;;;20.20;99.90;;;;;;5002839;28;20452;-82
2022/07/29 13:33:13;;;;;;;12.13;10.97;;;20.30;99.90;;;;;;4997451;28;20511;-83
2022/07/29 13:35:39;;;;;;;12.30;11.40;;;20.30;99.90;;;;;;5014219;28;20447;-83
2022/07/29 13:38:07;;;;;;;14.27;11.60;;;20.30;99.90;;;;;;5020578;28;20478;-84
2022/07/29 13:40:35;;;;;;;13.40;11.80;;;20.30;99.90;;;;;;5005312;28;20461;-83
2022/07/29 13:43:01;;;;;;;13.90;12.53;;;20.30;99.90;;;;;;5006114;28;20451;-84
2022/07/29 13:45:28;;;;;;;14.00;13.00;;;20.50;99.90;;;;;;5020115;28;20460;-84
2022/07/29 13:47:59;;;;;;;14.90;13.70;;;20.60;99.90;;;;;;5021755;28;20563;-83
2022/07/29 13:50:26;;;;;;;16.80;15.20;;;20.80;99.90;;;;;;5020953;28;20984;-83
2022/07/29 13:52:53;;;;;;;15.07;13.90;;;20.90;99.90;;;;;;5019142;28;20454;-82
2022/07/29 13:55:20;;;;;;;14.43;13.13;;;21.00;99.90;;;;;;5014782;28;20479;-84
2022/07/29 13:57:47;;;;;;;14.60;13.33;;;21.20;99.90;;;;;;5023513;28;20472;-84
2022/07/29 14:00:14;;;;;;;14.80;13.47;;;21.40;99.90;;;;;;5025600;28;20453;-84
2022/07/29 14:02:46;;;;;;;18.30;13.47;;;21.60;99.90;;;;;;5026018;28;20454;-85
2022/07/29 14:08:45;;;;;;;11.90;10.80;;;22.10;99.90;;;;;;4940128;28;20479;-84
2022/07/29 14:11:12;;;;;;;13.63;12.63;;;22.40;99.90;;;;;;5021937;28;20461;-84
2022/07/29 14:13:38;;;;;;;12.13;11.13;;;22.70;99.90;;;;;;5008222;28;20451;-83
2022/07/29 14:16:06;;;;;;;12.77;11.53;;;22.90;99.90;;;;;;5004380;28;20454;-84